Time;durP1;ratioP1;P1;durP2;ratioP2;P2;SDS_P1;SDS_P2;PMS_P1;PMS_P2;Temp;Humidity;BMP_temperature;BMP_pressure;BME280_temperature;BME280_humidity;BME280_pressure;Samples;Min_cycle;Max_cycle;Signal;HPM_P1;HPM_P2
2021/06/05 00:02:22;;;;;;;7.90;4.78;;;;;;;17.13;52.13;100825.77;1767147;80;21034;-65
2021/06/05 00:04:53;;;;;;;12.55;5.25;;;;;;;17.13;52.28;100823.59;1733987;80;21124;-65
2021/06/05 00:07:21;;;;;;;13.20;5.30;;;;;;;17.11;52.37;100823.73;1771128;79;21054;-65
2021/06/05 00:09:47;;;;;;;15.83;7.22;;;;;;;17.08;52.12;100818.76;1773725;79;21114;-65
2021/06/05 00:12:16;;;;;;;14.68;7.45;;;;;;;17.02;52.29;100819.36;1784864;79;21020;-65
2021/06/05 00:14:43;;;;;;;12.63;7.00;;;;;;;16.99;52.89;100815.68;1770804;79;21594;-65
2021/06/05 00:17:11;;;;;;;14.15;7.08;;;;;;;16.95;52.96;100820.47;1782267;79;21176;-65
2021/06/05 00:19:39;;;;;;;10.95;6.65;;;;;;;16.92;53.63;100818.62;1775673;79;21054;-65
2021/06/05 00:22:05;;;;;;;11.25;6.42;;;;;;;16.88;53.81;100826.89;1763466;80;21092;-65
2021/06/05 00:24:33;;;;;;;13.68;6.90;;;;;;;16.83;53.93;100817.19;1765682;80;21075;-65
2021/06/05 00:27:00;;;;;;;11.93;6.12;;;;;;;16.81;54.08;100814.33;1760676;78;21093;-66
2021/06/05 00:29:27;;;;;;;9.23;5.05;;;;;;;16.78;53.84;100814.62;1775681;79;21538;-66
2021/06/05 00:31:54;;;;;;;9.83;5.28;;;;;;;16.77;53.33;100814.30;1761629;80;21049;-66
2021/06/05 00:34:20;;;;;;;11.05;5.20;;;;;;;16.73;53.11;100811.13;1772537;79;21542;-66
2021/06/05 00:36:48;;;;;;;10.20;5.10;;;;;;;16.71;53.00;100817.09;1780318;79;21059;-66
2021/06/05 00:39:15;;;;;;;9.03;5.53;;;;;;;16.65;53.07;100813.20;1779262;79;21092;-66
2021/06/05 00:41:42;;;;;;;13.25;5.92;;;;;;;16.60;53.19;100812.00;1761795;80;21014;-65
2021/06/05 00:44:11;;;;;;;14.05;5.62;;;;;;;16.53;53.28;100813.92;1763963;80;21667;-65
2021/06/05 00:46:38;;;;;;;9.88;5.37;;;;;;;16.47;53.36;100809.70;1779934;79;21668;-65
2021/06/05 00:49:06;;;;;;;8.10;4.62;;;;;;;16.42;53.33;100814.13;1782803;79;21061;-65
2021/06/05 00:51:49;;;;;;;12.55;5.15;;;;;;;16.40;53.31;100820.09;1773555;78;21085;-65
2021/06/05 00:54:18;;;;;;;9.48;4.12;;;;;;;16.37;53.41;100820.89;1770719;78;21066;-65
2021/06/05 00:56:53;;;;;;;12.00;5.33;;;;;;;16.32;53.65;100823.52;1766185;78;21026;-66
2021/06/05 00:59:21;;;;;;;9.65;5.00;;;;;;;16.28;53.78;100826.11;1783116;78;21120;-66
2021/06/05 01:01:48;;;;;;;7.85;4.67;;;;;;;16.24;53.97;100822.56;1780523;78;21607;-65
2021/06/05 01:04:15;;;;;;;8.60;4.80;;;;;;;16.20;54.10;100820.70;1752664;80;21088;-66
2021/06/05 01:07:10;;;;;;;9.53;4.42;;;;;;;16.16;54.21;100817.52;1783396;78;21131;-66
2021/06/05 01:09:57;;;;;;;8.33;4.12;;;;;;;16.14;54.32;100818.16;1790928;78;21070;-65
2021/06/05 01:12:41;;;;;;;9.13;5.08;;;;;;;16.11;54.53;100817.13;1759393;78;21026;-65
2021/06/05 01:15:26;;;;;;;8.25;5.45;;;;;;;16.08;54.79;100812.61;1768143;78;21649;-66
2021/06/05 01:18:10;;;;;;;9.98;5.87;;;;;;;16.06;55.09;100815.91;1801112;78;21170;-65
2021/06/05 01:20:49;;;;;;;12.63;5.10;;;;;;;16.04;54.99;100815.20;1796355;78;21125;-65
2021/06/05 01:23:39;;;;;;;10.15;5.12;;;;;;;16.02;54.96;100817.17;1774609;78;21113;-65
2021/06/05 01:26:21;;;;;;;10.15;5.08;;;;;;;15.98;55.15;100812.66;1801396;78;21521;-66
2021/06/05 01:29:16;;;;;;;10.88;5.83;;;;;;;15.95;55.30;100821.77;1731147;81;21054;-66
2021/06/05 01:31:50;;;;;;;11.35;5.10;;;;;;;15.94;55.45;100816.61;1745532;80;21115;-65
2021/06/05 01:34:17;;;;;;;8.30;5.03;;;;;;;15.89;55.48;100817.54;1747551;80;21770;-65
2021/06/05 01:36:48;;;;;;;8.95;4.92;;;;;;;15.88;55.67;100817.18;1719832;81;21065;-65
2021/06/05 01:39:19;;;;;;;8.48;5.12;;;;;;;15.88;56.11;100813.20;1720074;82;21057;-65
2021/06/05 01:41:47;;;;;;;8.98;4.95;;;;;;;15.87;55.91;100812.84;1720797;80;21673;-65
2021/06/05 01:44:14;;;;;;;8.90;4.40;;;;;;;15.86;55.91;100813.84;1738611;80;21136;-65
2021/06/05 01:46:45;;;;;;;9.35;4.37;;;;;;;15.86;56.03;100813.34;1730501;80;21064;-66
2021/06/05 01:49:13;;;;;;;10.65;4.83;;;;;;;15.86;56.19;100814.67;1741675;80;21190;-66
2021/06/05 01:51:46;;;;;;;9.25;3.92;;;;;;;15.86;56.30;100825.28;1740723;80;21093;-66
2021/06/05 01:54:28;;;;;;;7.45;4.22;;;;;;;15.82;56.45;100814.63;1717704;80;21104;-66
2021/06/05 01:56:59;;;;;;;7.58;4.45;;;;;;;15.81;56.48;100822.23;1737502;80;21528;-66
2021/06/05 01:59:29;;;;;;;7.70;3.92;;;;;;;15.76;56.72;100817.86;1726029;80;21559;-67
2021/06/05 02:01:57;;;;;;;8.23;4.67;;;;;;;15.76;57.04;100818.69;1743298;80;21057;-67
2021/06/05 02:04:24;;;;;;;10.48;4.00;;;;;;;15.73;57.36;100816.29;1727386;80;21017;-66
2021/06/05 02:06:55;;;;;;;15.00;4.25;;;;;;;15.75;57.56;100822.34;1739647;80;20986;-67
2021/06/05 02:09:24;;;;;;;13.65;4.92;;;;;;;15.81;57.61;100814.78;1735252;80;21648;-67
2021/06/05 02:11:57;;;;;;;9.33;4.55;;;;;;;15.83;57.66;100811.48;1751734;80;21044;-67
2021/06/05 02:14:37;;;;;;;9.60;4.62;;;;;;;15.83;57.82;100812.80;1739922;80;21505;-67
2021/06/05 02:17:08;;;;;;;8.93;4.30;;;;;;;15.80;58.10;100816.58;1733131;80;21309;-67
2021/06/05 02:19:40;;;;;;;10.05;4.65;;;;;;;15.75;58.40;100815.70;1741160;80;21482;-67
2021/06/05 02:22:21;;;;;;;16.32;4.87;;;;;;;15.70;58.73;100813.09;1738497;80;21270;-67
2021/06/05 02:24:51;;;;;;;8.43;4.45;;;;;;;15.64;58.86;100808.39;1733826;80;21062;-67
2021/06/05 02:27:20;;;;;;;10.95;4.60;;;;;;;15.60;59.07;100814.45;1732022;81;21058;-67
2021/06/05 02:29:48;;;;;;;9.75;4.28;;;;;;;15.55;59.42;100810.08;1750021;81;21125;-66
2021/06/05 02:32:19;;;;;;;12.15;5.00;;;;;;;15.51;59.56;100809.53;1750939;81;21170;-66
2021/06/05 02:34:46;;;;;;;8.73;4.65;;;;;;;15.49;59.87;100811.50;1757553;81;21113;-66
2021/06/05 02:37:16;;;;;;;6.45;3.65;;;;;;;15.51;60.00;100805.55;1719824;81;21497;-67
2021/06/05 02:39:43;;;;;;;8.18;4.10;;;;;;;15.57;60.05;100804.16;1749843;79;21064;-66
2021/06/05 02:42:13;;;;;;;7.67;4.30;;;;;;;15.65;59.76;100805.59;1709719;82;21623;-66
2021/06/05 02:44:44;;;;;;;9.78;4.33;;;;;;;15.70;59.58;100806.00;1743753;81;21089;-66
2021/06/05 02:47:11;;;;;;;9.63;4.60;;;;;;;15.71;59.48;100807.65;1737571;82;21114;-66
2021/06/05 02:49:39;;;;;;;8.45;4.15;;;;;;;15.74;59.35;100807.36;1739797;81;21084;-66
2021/06/05 02:52:28;;;;;;;9.03;4.42;;;;;;;15.75;59.11;100810.84;1751981;81;21137;-66
2021/06/05 02:54:41;;;;;;;8.78;4.72;;;;;;;15.72;59.20;100813.31;1759894;81;21034;-66
2021/06/05 02:57:08;;;;;;;8.08;4.35;;;;;;;15.71;59.41;100808.15;1754087;81;21112;-66
2021/06/05 02:59:37;;;;;;;9.13;4.25;;;;;;;15.69;59.65;100812.27;1740589;81;21199;-67
2021/06/05 03:02:05;;;;;;;8.03;4.22;;;;;;;15.68;59.71;100799.97;1753137;81;21465;-66
2021/06/05 03:04:33;;;;;;;10.80;5.17;;;;;;;15.69;59.76;100806.14;1743979;81;21011;-66
2021/06/05 03:07:00;;;;;;;8.03;4.40;;;;;;;15.70;59.80;100811.77;1746831;81;21517;-66
2021/06/05 03:09:27;;;;;;;10.70;4.35;;;;;;;15.73;59.82;100815.46;1746858;81;21120;-66
2021/06/05 03:11:55;;;;;;;8.88;5.15;;;;;;;15.70;59.88;100808.65;1760857;80;21137;-67
2021/06/05 03:14:24;;;;;;;7.47;4.25;;;;;;;15.65;60.07;100812.70;1733240;81;21097;-66
2021/06/05 03:16:51;;;;;;;8.95;4.83;;;;;;;15.64;60.19;100813.20;1754616;81;21597;-68
2021/06/05 03:19:19;;;;;;;8.75;4.47;;;;;;;15.69;60.08;100810.95;1722070;81;21038;-63
2021/06/05 03:21:48;;;;;;;8.38;4.65;;;;;;;15.75;60.03;100813.05;1751401;81;21081;-69
2021/06/05 03:24:17;;;;;;;11.00;4.60;;;;;;;15.82;59.96;100817.76;1747023;79;21363;-66
2021/06/05 03:26:45;;;;;;;10.70;4.92;;;;;;;15.86;59.92;100816.00;1747412;80;21076;-64
2021/06/05 03:29:13;;;;;;;10.32;5.28;;;;;;;15.90;59.89;100815.20;1762442;79;21062;-63
2021/06/05 03:31:41;;;;;;;9.38;5.47;;;;;;;15.94;59.85;100817.93;1741656;79;21542;-61
2021/06/05 03:34:08;;;;;;;11.40;4.87;;;;;;;15.95;59.88;100814.27;1763636;79;21094;-63
2021/06/05 03:36:34;;;;;;;8.65;4.95;;;;;;;15.93;59.87;100812.27;1764610;79;21132;-62
2021/06/05 03:39:05;;;;;;;10.25;5.55;;;;;;;15.95;59.92;100810.30;1734505;79;21000;-63
2021/06/05 03:41:34;;;;;;;13.90;5.30;;;;;;;15.95;59.90;100812.48;1783989;79;21544;-62
2021/06/05 03:44:05;;;;;;;11.20;5.20;;;;;;;15.97;60.04;100812.34;1740242;79;21070;-62
2021/06/05 03:46:32;;;;;;;10.43;5.17;;;;;;;15.96;60.23;100809.33;1785441;79;21619;-62
2021/06/05 03:49:00;;;;;;;9.18;4.67;;;;;;;15.96;60.44;100805.34;1768127;79;21989;-62
2021/06/05 03:51:29;;;;;;;8.45;5.65;;;;;;;16.00;60.54;100805.88;1752728;81;21065;-61
2021/06/05 03:53:55;;;;;;;10.03;4.87;;;;;;;16.09;60.41;100801.84;1782100;78;21297;-63
2021/06/05 03:56:22;;;;;;;12.70;5.10;;;;;;;16.26;60.23;100803.36;1775894;79;21054;-62
2021/06/05 03:58:51;;;;;;;10.53;5.35;;;;;;;16.42;60.11;100804.84;1750380;80;21037;-62
2021/06/05 04:01:23;;;;;;;9.18;5.17;;;;;;;16.55;60.01;100806.30;1778635;78;20986;-68
2021/06/05 04:03:50;;;;;;;9.38;5.17;;;;;;;16.61;60.22;100801.69;1776041;80;21040;-65
2021/06/05 04:06:19;;;;;;;12.30;5.50;;;;;;;16.68;60.33;100808.09;1755456;80;21102;-75
2021/06/05 04:08:48;;;;;;;9.80;5.10;;;;;;;16.71;60.50;100801.15;1762140;80;21065;-66
2021/06/05 04:11:15;;;;;;;8.28;5.00;;;;;;;16.72;60.98;100801.47;1756884;80;20994;-64
2021/06/05 04:13:45;;;;;;;8.85;4.65;;;;;;;16.76;61.07;100797.54;1770707;79;21619;-64
2021/06/05 04:16:12;;;;;;;7.53;4.30;;;;;;;16.81;61.18;100795.25;1740251;80;21109;-69
2021/06/05 04:18:40;;;;;;;9.43;3.77;;;;;;;16.88;60.93;100791.02;1772644;79;21562;-68
2021/06/05 04:21:10;;;;;;;7.00;4.15;;;;;;;17.02;60.99;100792.78;1758680;79;21157;-67
2021/06/05 04:23:37;;;;;;;8.38;5.08;;;;;;;17.14;60.98;100790.70;1738831;79;21062;-67
2021/06/05 04:26:05;;;;;;;9.50;5.17;;;;;;;17.19;60.70;100793.73;1759041;79;21141;-67
2021/06/05 04:28:33;;;;;;;8.98;5.00;;;;;;;17.22;60.89;100791.59;1770751;79;21063;-68
2021/06/05 04:31:00;;;;;;;7.67;4.50;;;;;;;17.29;61.31;100782.99;1766206;79;21067;-67
2021/06/05 04:33:28;;;;;;;12.43;5.15;;;;;;;17.36;61.07;100786.69;1739162;80;21336;-68
2021/06/05 04:35:58;;;;;;;12.40;6.20;;;;;;;17.42;61.18;100786.06;1764883;79;21125;-68
2021/06/05 04:38:25;;;;;;;17.87;6.70;;;;;;;17.52;60.88;100793.94;1760750;79;21276;-68
2021/06/05 04:40:51;;;;;;;7.42;4.33;;;;;;;17.64;60.33;100793.48;1753198;79;21067;-69
2021/06/05 04:43:18;;;;;;;8.13;4.35;;;;;;;17.71;59.79;100796.84;1757725;80;21114;-70
2021/06/05 04:45:46;;;;;;;10.03;4.25;;;;;;;17.75;58.97;100788.87;1756954;79;21090;-64
2021/06/05 04:48:13;;;;;;;10.30;4.67;;;;;;;17.78;58.41;100788.55;1760434;79;21140;-60
2021/06/05 04:50:40;;;;;;;8.93;3.80;;;;;;;17.83;57.98;100790.23;1767926;79;21093;-61
2021/06/05 04:53:07;;;;;;;8.78;4.37;;;;;;;17.87;56.64;100786.78;1775841;79;21062;-62
2021/06/05 04:55:34;;;;;;;7.75;3.83;;;;;;;17.90;56.70;100784.62;1773813;79;21007;-64
2021/06/05 04:58:01;;;;;;;7.67;3.83;;;;;;;17.93;56.64;100779.50;1774403;79;21133;-61
2021/06/05 05:00:32;;;;;;;11.00;5.05;;;;;;;17.94;56.52;100779.34;1762065;79;21560;-60
2021/06/05 05:02:58;;;;;;;14.38;5.67;;;;;;;17.96;56.52;100780.51;1755721;79;21977;-60
2021/06/05 05:05:26;;;;;;;14.20;4.28;;;;;;;18.03;55.82;100773.53;1765860;79;21043;-68
2021/06/05 05:07:52;;;;;;;10.32;4.25;;;;;;;18.10;55.42;100773.21;1707458;83;21068;-70
2021/06/05 05:10:22;;;;;;;7.45;3.83;;;;;;;18.15;54.90;100774.06;1721888;81;21101;-70
2021/06/05 05:12:49;;;;;;;7.30;3.33;;;;;;;18.20;55.15;100780.56;1699484;82;21064;-69
2021/06/05 05:15:15;;;;;;;5.72;2.62;;;;;;;18.28;54.54;100780.26;1713821;82;21802;-68
2021/06/05 05:17:41;;;;;;;6.45;3.55;;;;;;;18.33;53.66;100777.94;1702504;82;21134;-68
2021/06/05 05:20:12;;;;;;;7.05;2.95;;;;;;;18.38;53.81;100780.44;1726748;82;21018;-68
2021/06/05 05:22:39;;;;;;;6.83;3.27;;;;;;;18.46;53.97;100772.96;1721871;82;21124;-68
2021/06/05 05:25:10;;;;;;;5.92;3.00;;;;;;;18.54;53.51;100774.78;1709963;82;21125;-67
2021/06/05 05:27:37;;;;;;;10.35;3.37;;;;;;;18.62;52.48;100773.45;1703992;81;21554;-67
2021/06/05 05:30:10;;;;;;;9.80;3.40;;;;;;;18.67;52.48;100768.97;1761935;79;21061;-66
2021/06/05 05:32:37;;;;;;;9.23;2.92;;;;;;;18.74;52.38;100768.63;1766831;79;21073;-66
2021/06/05 05:35:05;;;;;;;5.47;2.95;;;;;;;18.79;51.93;100767.62;1739436;80;21081;-67
2021/06/05 05:37:32;;;;;;;7.83;3.25;;;;;;;18.83;50.96;100760.16;1741823;79;21109;-66
2021/06/05 05:40:00;;;;;;;6.22;2.92;;;;;;;18.87;50.32;100760.99;1774786;79;21544;-66
2021/06/05 05:42:27;;;;;;;9.43;2.95;;;;;;;18.92;51.19;100761.32;1751043;81;21044;-67
2021/06/05 05:44:53;;;;;;;7.55;2.67;;;;;;;18.97;51.21;100753.33;1759004;80;21672;-65
2021/06/05 05:47:20;;;;;;;7.37;3.52;;;;;;;19.04;50.61;100756.47;1762929;80;21079;-67
2021/06/05 05:49:48;;;;;;;7.53;2.70;;;;;;;19.08;50.12;100755.63;1757108;80;21080;-67
2021/06/05 05:52:14;;;;;;;5.75;2.92;;;;;;;19.11;50.17;100755.30;1731237;81;21553;-68
2021/06/05 05:54:41;;;;;;;8.15;3.02;;;;;;;19.16;49.28;100756.13;1764625;79;21121;-67
2021/06/05 05:57:08;;;;;;;6.70;2.85;;;;;;;19.21;49.80;100752.44;1770639;79;21113;-67
2021/06/05 05:59:34;;;;;;;7.85;3.22;;;;;;;19.26;49.29;100752.77;1775831;79;21117;-63
2021/06/05 06:02:05;;;;;;;6.97;2.85;;;;;;;19.29;49.50;100751.09;1753038;79;21528;-65
2021/06/05 06:04:31;;;;;;;5.17;2.83;;;;;;;19.36;49.54;100748.57;1753514;80;21093;-70
2021/06/05 06:07:01;;;;;;;7.05;2.62;;;;;;;19.44;49.88;100744.03;1756841;79;21094;-69
2021/06/05 06:09:30;;;;;;;4.58;2.12;;;;;;;19.52;49.34;100738.33;1771624;79;21074;-68
2021/06/05 06:12:00;;;;;;;7.78;2.52;;;;;;;19.59;47.75;100741.99;1767149;80;21589;-76
2021/06/05 06:14:27;;;;;;;6.53;2.95;;;;;;;19.64;47.89;100732.45;1760696;79;21038;-63
2021/06/05 06:16:54;;;;;;;7.92;2.25;;;;;;;19.72;48.00;100729.41;1751957;79;21853;-74
2021/06/05 06:19:20;;;;;;;4.17;1.90;;;;;;;19.75;47.01;100729.09;1784897;78;21049;-75
2021/06/05 06:21:47;;;;;;;4.95;2.30;;;;;;;19.79;47.01;100727.24;1738988;80;21098;-76
2021/06/05 06:24:15;;;;;;;4.97;2.20;;;;;;;19.86;47.40;100726.86;1763352;80;21061;-76
2021/06/05 06:26:42;;;;;;;4.97;2.17;;;;;;;19.91;47.31;100733.53;1783712;79;21108;-73
2021/06/05 06:29:19;;;;;;;7.47;2.30;;;;;;;19.96;47.21;100731.98;1774822;79;21055;-73
2021/06/05 06:31:43;;;;;;;7.40;2.67;;;;;;;20.04;47.01;100725.77;1783500;80;21073;-69
2021/06/05 06:34:09;;;;;;;6.62;2.52;;;;;;;20.07;46.37;100722.73;1779491;79;21098;-71
2021/06/05 06:36:36;;;;;;;4.80;1.75;;;;;;;20.12;46.37;100723.02;1774756;79;22288;-76
2021/06/05 06:39:03;;;;;;;4.53;2.10;;;;;;;20.14;46.20;100712.16;1777331;79;21057;-71
2021/06/05 06:41:31;;;;;;;4.05;1.85;;;;;;;20.16;45.90;100710.98;1781127;79;21618;-71
2021/06/05 06:43:59;;;;;;;4.83;2.22;;;;;;;20.20;44.93;100713.62;1749499;80;21089;-68
2021/06/05 06:46:32;;;;;;;6.22;2.12;;;;;;;20.25;45.08;100719.77;1777175;79;21070;-71
2021/06/05 06:48:59;;;;;;;8.03;2.30;;;;;;;20.28;45.23;100720.76;1712661;82;21073;-78
2021/06/05 06:51:26;;;;;;;7.78;3.55;;;;;;;20.32;44.57;100718.04;1724916;80;21596;-79
2021/06/05 06:53:54;;;;;;;4.87;1.75;;;;;;;20.35;44.06;100716.35;1735933;81;21143;-74
2021/06/05 06:56:22;;;;;;;5.97;2.40;;;;;;;20.38;44.83;100710.66;1736027;80;21133;-75
2021/06/05 06:58:49;;;;;;;4.90;1.70;;;;;;;20.40;43.82;100703.28;1736773;81;21109;-73
2021/06/05 07:01:16;;;;;;;4.62;1.98;;;;;;;20.43;43.70;100698.09;1729585;81;21094;-73
2021/06/05 07:03:44;;;;;;;6.67;2.20;;;;;;;20.45;44.02;100712.11;1725501;81;21135;-75
2021/06/05 07:06:10;;;;;;;4.50;1.82;;;;;;;20.50;44.11;100705.71;1724553;81;21243;-67
2021/06/05 07:08:40;;;;;;;5.47;1.70;;;;;;;20.56;43.19;100703.67;1723146;81;21093;-67
2021/06/05 07:11:13;;;;;;;5.00;1.90;;;;;;;20.64;42.92;100699.28;1734319;81;21055;-67
2021/06/05 07:13:41;;;;;;;4.97;2.22;;;;;;;20.71;41.69;100702.40;1773277;79;21379;-69
2021/06/05 07:16:09;;;;;;;4.25;1.90;;;;;;;20.76;42.61;100701.83;1778665;78;21597;-70
2021/06/05 07:18:37;;;;;;;6.45;1.67;;;;;;;20.82;42.55;100698.95;1781283;79;21104;-69
2021/06/05 07:21:11;;;;;;;6.20;2.10;;;;;;;20.90;43.21;100700.21;1712603;82;21308;-67
2021/06/05 07:23:41;;;;;;;4.42;1.92;;;;;;;20.96;42.94;100696.30;1716199;82;21159;-67
2021/06/05 07:26:16;;;;;;;5.75;1.80;;;;;;;21.06;42.55;100697.86;1710269;82;20977;-68
2021/06/05 07:28:46;;;;;;;5.47;2.12;;;;;;;21.11;41.41;100696.28;1728800;80;21058;-65
2021/06/05 07:31:17;;;;;;;7.00;2.10;;;;;;;21.15;41.39;100693.58;1749724;80;21789;-64
2021/06/05 07:33:44;;;;;;;4.35;1.62;;;;;;;21.21;41.40;100687.98;1767663;79;21077;-64
2021/06/05 07:36:14;;;;;;;3.47;1.50;;;;;;;21.26;39.64;100688.25;1771324;79;21634;-66
2021/06/05 07:38:40;;;;;;;3.98;1.65;;;;;;;21.30;39.77;100691.37;1731058;80;21390;-64
2021/06/05 07:41:07;;;;;;;5.12;1.62;;;;;;;21.33;39.45;100689.19;1766343;79;21123;-64
2021/06/05 07:43:35;;;;;;;6.08;1.67;;;;;;;21.37;38.68;100676.75;1766692;80;21577;-66
2021/06/05 07:46:03;;;;;;;4.00;1.70;;;;;;;21.38;39.22;100679.76;1774308;79;21553;-64
2021/06/05 07:48:30;;;;;;;4.08;1.50;;;;;;;21.43;38.77;100667.98;1777214;80;21061;-64
2021/06/05 07:50:57;;;;;;;5.37;1.52;;;;;;;21.48;39.27;100666.94;1769167;79;21549;-69
2021/06/05 07:53:23;;;;;;;4.45;1.35;;;;;;;21.54;39.64;100669.39;1771031;79;21104;-67
2021/06/05 07:55:50;;;;;;;3.17;1.20;;;;;;;21.59;38.24;100665.64;1774526;79;21085;-69
2021/06/05 07:58:19;;;;;;;5.70;1.60;;;;;;;21.62;37.88;100657.20;1776069;79;21133;-65
2021/06/05 08:00:46;;;;;;;3.98;1.55;;;;;;;21.64;37.73;100656.02;1768710;79;21591;-67
2021/06/05 08:03:13;;;;;;;4.45;1.42;;;;;;;21.70;38.17;100654.41;1778033;79;21553;-65
2021/06/05 08:05:41;;;;;;;4.10;1.50;;;;;;;21.78;38.30;100651.63;1749318;79;21076;-66
2021/06/05 08:08:09;;;;;;;3.95;1.72;;;;;;;21.82;37.42;100647.56;1786897;79;21754;-64
2021/06/05 08:10:39;;;;;;;4.58;1.40;;;;;;;21.86;37.95;100646.15;1786434;79;21038;-66
2021/06/05 08:13:06;;;;;;;6.22;1.45;;;;;;;21.88;36.69;100641.94;1783215;79;21120;-67
2021/06/05 08:15:36;;;;;;;3.70;1.00;;;;;;;21.91;35.75;100646.10;1754534;79;21101;-66
2021/06/05 08:18:03;;;;;;;3.40;1.35;;;;;;;21.92;36.00;100647.22;1779388;79;21101;-66
2021/06/05 08:20:35;;;;;;;6.10;1.40;;;;;;;21.95;35.02;100640.15;1783140;79;21141;-69
2021/06/05 08:23:04;;;;;;;3.58;1.05;;;;;;;21.98;36.09;100636.27;1758679;80;20969;-64
2021/06/05 08:25:31;;;;;;;5.10;1.30;;;;;;;21.99;35.51;100638.77;1782741;78;21546;-67
2021/06/05 08:27:59;;;;;;;3.42;1.30;;;;;;;21.97;35.83;100638.13;1779245;80;20982;-66
2021/06/05 08:30:38;;;;;;;3.45;1.20;;;;;;;21.96;35.67;100633.78;1763482;78;21007;-65
2021/06/05 08:33:06;;;;;;;4.20;1.27;;;;;;;21.98;36.35;100630.39;1763704;79;22786;-66
2021/06/05 08:35:34;;;;;;;5.60;1.60;;;;;;;22.04;35.85;100633.66;1770376;79;21075;-69
2021/06/05 08:38:00;;;;;;;4.25;1.27;;;;;;;22.13;34.51;100630.33;1778867;79;21109;-71
2021/06/05 08:40:35;;;;;;;3.92;1.62;;;;;;;22.14;34.36;100631.14;1738455;79;21102;-68
2021/06/05 08:55:06;;;;;;;3.83;1.35;;;;;;;23.55;33.23;100615.72;1754323;80;22763;-66
2021/06/05 08:57:47;;;;;;;3.65;1.57;;;;;;;23.69;33.57;100617.91;1734415;81;20946;-67
2021/06/05 09:00:25;;;;;;;4.20;1.50;;;;;;;23.60;33.06;100617.77;1725307;83;21472;-64
2021/06/05 09:02:59;;;;;;;3.77;1.40;;;;;;;23.50;32.77;100614.16;1718182;81;21720;-69
2021/06/05 09:05:31;;;;;;;4.42;1.60;;;;;;;23.40;33.20;100612.87;1736264;81;21552;-66
2021/06/05 09:07:58;;;;;;;3.05;1.05;;;;;;;23.36;32.59;100617.30;1727672;81;21053;-66
2021/06/05 09:10:26;;;;;;;3.35;1.10;;;;;;;23.33;31.46;100611.01;1700790;81;21552;-66
2021/06/05 09:12:54;;;;;;;3.98;1.67;;;;;;;23.24;32.88;100608.70;1726073;81;21039;-70
2021/06/05 09:15:28;;;;;;;3.75;1.55;;;;;;;23.14;32.74;100609.88;1681874;83;20938;-65
2021/06/05 09:17:59;;;;;;;4.42;2.27;;;;;;;23.09;33.31;100603.47;1686107;83;21112;-66
2021/06/05 09:20:42;;;;;;;5.97;1.70;;;;;;;23.02;32.59;100607.95;1675711;83;22224;-68
2021/06/05 09:23:29;;;;;;;5.55;2.00;;;;;;;22.98;32.09;100611.52;1680308;83;21521;-69
2021/06/05 09:25:58;;;;;;;4.45;1.27;;;;;;;22.94;32.43;100606.25;1678035;84;21551;-65
2021/06/05 09:28:29;;;;;;;94.00;44.55;;;;;;;22.96;33.15;100601.52;1635272;85;21078;-66
2021/06/05 09:31:20;;;;;;;8.88;4.55;;;;;;;22.98;32.30;100594.94;1670439;84;21562;-67
2021/06/05 09:33:47;;;;;;;9.80;6.45;;;;;;;22.99;32.87;100598.44;1652236;84;21660;-66
2021/06/05 09:36:26;;;;;;;5.25;2.05;;;;;;;23.01;32.91;100593.69;1682832;84;21063;-65
2021/06/05 09:38:57;;;;;;;5.55;1.37;;;;;;;23.04;32.06;100591.14;1691540;84;21066;-66
2021/06/05 09:41:30;;;;;;;6.03;3.33;;;;;;;23.06;32.79;100588.58;1681831;84;21015;-67
2021/06/05 09:44:27;;;;;;;7.95;1.90;;;;;;;23.04;32.36;100587.92;1675519;84;21042;-66
2021/06/05 09:47:07;;;;;;;6.12;2.10;;;;;;;23.05;33.62;100578.02;1682905;84;21066;-65
2021/06/05 09:49:45;;;;;;;6.97;1.37;;;;;;;23.14;33.14;100579.02;1671961;84;21526;-66
2021/06/05 09:52:13;;;;;;;4.15;1.30;;;;;;;23.26;32.77;100578.45;1678872;84;21094;-67
2021/06/05 09:54:47;;;;;;;3.33;1.32;;;;;;;23.40;33.11;100568.04;1657294;83;21501;-66
2021/06/05 09:57:38;;;;;;;3.42;1.20;;;;;;;23.52;33.10;100566.43;1682590;83;21129;-66
2021/06/05 10:00:32;;;;;;;4.90;1.52;;;;;;;23.58;32.81;100572.02;1676407;83;21061;-68
2021/06/05 10:03:32;;;;;;;6.03;2.15;;;;;;;23.59;32.68;100566.94;1677704;83;21533;-66
2021/06/05 10:06:36;;;;;;;4.33;1.52;;;;;;;23.65;32.60;100558.89;1678778;83;21112;-64
2021/06/05 10:09:27;;;;;;;5.15;2.12;;;;;;;23.75;31.31;100554.47;1677644;83;22285;-66
2021/06/05 10:12:23;;;;;;;5.67;2.27;;;;;;;23.80;31.84;100555.20;1678021;84;21122;-67
2021/06/05 10:15:13;;;;;;;4.37;1.92;;;;;;;23.83;31.24;100556.98;1676500;83;21105;-65
2021/06/05 10:17:55;;;;;;;4.75;2.00;;;;;;;23.88;31.08;100555.84;1678681;84;21078;-63
2021/06/05 10:20:56;;;;;;;4.30;1.82;;;;;;;23.95;31.65;100548.31;1675145;84;21165;-66
2021/06/05 10:23:32;;;;;;;4.17;1.70;;;;;;;23.98;31.88;100543.34;1652022;85;21075;-66
2021/06/05 10:26:17;;;;;;;3.92;1.40;;;;;;;23.96;32.17;100540.58;1675554;84;21034;-67
2021/06/05 10:28:49;;;;;;;4.25;1.42;;;;;;;23.99;31.94;100536.10;1659616;85;21129;-67
2021/06/05 10:31:19;;;;;;;7.40;1.87;;;;;;;24.02;31.74;100533.00;1673699;84;21085;-67
2021/06/05 10:33:53;;;;;;;5.58;1.80;;;;;;;24.06;31.04;100540.98;1683097;83;21144;-65
2021/06/05 10:36:30;;;;;;;4.03;1.77;;;;;;;24.09;31.47;100541.87;1688689;83;21707;-66
2021/06/05 10:39:06;;;;;;;7.58;2.15;;;;;;;24.08;31.13;100534.87;1673068;84;21039;-65
2021/06/05 10:41:42;;;;;;;4.70;1.62;;;;;;;24.06;31.39;100527.02;1659341;85;21079;-66
2021/06/05 10:44:10;;;;;;;4.30;1.60;;;;;;;24.10;31.07;100528.23;1682544;83;21062;-66
2021/06/05 10:47:12;;;;;;;4.22;1.80;;;;;;;24.13;31.29;100527.53;1687701;83;22060;-67
2021/06/05 10:50:06;;;;;;;4.00;1.60;;;;;;;24.21;31.01;100517.38;1629269;86;21115;-65
2021/06/05 10:52:41;;;;;;;5.00;1.77;;;;;;;24.30;32.51;100514.77;1637022;85;21097;-65
2021/06/05 10:55:19;;;;;;;5.62;1.80;;;;;;;24.34;30.37;100517.03;1677616;83;21103;-67
2021/06/05 10:57:49;;;;;;;5.87;2.35;;;;;;;24.34;30.44;100518.37;1686674;83;21475;-74
2021/06/05 11:00:52;;;;;;;5.42;2.20;;;;;;;24.26;30.08;100520.27;1653988;84;21095;-67
2021/06/05 11:03:33;;;;;;;6.08;2.15;;;;;;;24.17;31.09;100526.88;1681163;85;21562;-66
2021/06/05 11:06:18;;;;;;;5.08;2.17;;;;;;;24.03;31.65;100532.80;1653742;85;21586;-68
2021/06/05 11:08:49;;;;;;;5.97;2.20;;;;;;;23.92;32.22;100530.73;1672735;83;21074;-65
2021/06/05 11:11:42;;;;;;;4.37;1.70;;;;;;;23.78;32.95;100533.91;1680452;83;21830;-66
2021/06/05 11:14:25;;;;;;;5.37;1.77;;;;;;;23.67;32.50;100543.42;1656912;84;21189;-69
2021/06/05 11:17:21;;;;;;;4.50;1.12;;;;;;;23.52;31.65;100534.73;1684428;84;21102;-68
2021/06/05 11:19:53;;;;;;;4.17;1.45;;;;;;;23.40;31.11;100538.50;1682792;83;21579;-67
2021/06/05 11:22:23;;;;;;;4.58;1.80;;;;;;;23.40;31.33;100536.34;1672516;83;21118;-66
2021/06/05 11:25:14;;;;;;;5.22;2.17;;;;;;;23.41;31.43;100528.61;1655471;84;21296;-69
2021/06/05 11:27:47;;;;;;;3.98;1.57;;;;;;;23.42;31.50;100531.09;1674319;84;21115;-65
2021/06/05 11:30:26;;;;;;;7.05;1.98;;;;;;;23.43;31.75;100531.39;1682226;84;21561;-65
2021/06/05 11:33:09;;;;;;;3.60;1.30;;;;;;;23.45;30.83;100533.88;1681104;83;21028;-67
2021/06/05 11:35:53;;;;;;;7.17;1.65;;;;;;;23.53;31.51;100526.44;1670816;83;21064;-67
2021/06/05 11:38:25;;;;;;;5.33;1.60;;;;;;;23.66;31.87;100531.53;1678522;84;21066;-67
2021/06/05 11:41:09;;;;;;;5.90;1.47;;;;;;;23.76;31.39;100527.92;1676293;83;21533;-68
2021/06/05 11:43:45;;;;;;;4.55;1.57;;;;;;;23.84;31.61;100521.03;1680397;83;21082;-66
2021/06/05 11:46:33;;;;;;;5.58;1.80;;;;;;;23.93;30.68;100522.98;1680083;84;21044;-66
2021/06/05 11:49:05;;;;;;;7.20;1.55;;;;;;;24.03;30.93;100511.83;1685183;84;21157;-66
2021/06/05 11:51:39;;;;;;;4.67;1.70;;;;;;;24.11;31.30;100516.98;1681033;84;21015;-67
2021/06/05 11:54:19;;;;;;;3.77;1.40;;;;;;;24.17;31.26;100517.47;1675952;83;21520;-65
2021/06/05 11:57:21;;;;;;;6.37;3.02;;;;;;;24.25;30.98;100512.41;1686982;83;21054;-65
2021/06/05 11:59:48;;;;;;;2.65;1.20;;;;;;;24.38;30.67;100511.56;1658811;84;22216;-68